createdAt,value
2022-08-09T00:00:11.931Z,1.50
2022-08-09T00:02:49.029Z,1.85
2022-08-09T00:06:19.202Z,1.73
2022-08-09T00:08:13.034Z,1.60
2022-08-09T00:10:59.675Z,1.50
2022-08-09T00:13:28.524Z,1.73
2022-08-09T00:16:02.867Z,1.45
2022-08-09T00:18:36.043Z,1.70
2022-08-09T00:21:08.939Z,1.90
2022-08-09T00:23:57.681Z,2.03
2022-08-09T00:26:33.076Z,1.55
2022-08-09T00:29:02.397Z,1.80
2022-08-09T00:31:58.320Z,1.90
2022-08-09T00:34:19.341Z,1.92
2022-08-09T00:36:48.879Z,1.85
2022-08-09T00:40:13.802Z,1.60
2022-08-09T00:44:15.307Z,1.83
2022-08-09T00:44:52.163Z,1.77
2022-08-09T00:47:25.027Z,2.00
2022-08-09T00:49:54.960Z,1.60
2022-08-09T00:52:30.370Z,1.65
2022-08-09T00:55:02.114Z,3.30
2022-08-09T00:57:34.228Z,1.92
2022-08-09T01:00:21.052Z,1.67
2022-08-09T01:03:45.608Z,1.70
2022-08-09T01:07:01.183Z,1.70
2022-08-09T01:09:41.288Z,1.90
2022-08-09T01:12:38.284Z,1.52
2022-08-09T01:15:16.599Z,1.90
2022-08-09T01:17:58.274Z,1.73
2022-08-09T01:20:55.457Z,1.42
2022-08-09T01:24:03.190Z,1.60
2022-08-09T01:26:20.749Z,1.90
2022-08-09T01:28:53.784Z,1.75
2022-08-09T01:32:43.965Z,1.70
2022-08-09T01:34:19.557Z,1.80
2022-08-09T01:36:49.976Z,1.55
2022-08-09T01:39:19.703Z,1.90
2022-08-09T01:41:55.531Z,1.92
2022-08-09T01:44:29.852Z,1.77
2022-08-09T01:47:00.628Z,1.63
2022-08-09T01:49:31.987Z,1.90
2022-08-09T01:52:14.527Z,1.63
2022-08-09T01:54:52.342Z,2.00
2022-08-09T01:57:26.746Z,1.77
2022-08-09T02:00:03.382Z,2.05
2022-08-09T02:02:51.401Z,1.95
2022-08-09T02:05:37.768Z,1.90
2022-08-09T02:08:39.840Z,2.10
2022-08-09T02:11:03.237Z,1.80
2022-08-09T02:14:07.322Z,2.17
2022-08-09T02:16:59.029Z,2.20
2022-08-09T02:19:22.944Z,2.22
2022-08-09T02:21:57.424Z,2.25
2022-08-09T02:24:36.515Z,1.90
2022-08-09T02:27:09.458Z,2.03
2022-08-09T02:29:48.485Z,2.30
2022-08-09T02:32:20.048Z,2.10
2022-08-09T02:34:58.646Z,2.30
2022-08-09T02:37:31.835Z,2.50
2022-08-09T02:40:10.671Z,2.30
2022-08-09T02:42:43.019Z,2.38
2022-08-09T02:45:26.575Z,2.00
2022-08-09T02:48:05.508Z,2.88
2022-08-09T02:50:56.309Z,2.20
2022-08-09T02:53:37.245Z,2.10
2022-08-09T02:56:06.852Z,2.20
2022-08-09T02:58:38.017Z,2.30
2022-08-09T03:01:11.131Z,2.25
2022-08-09T03:04:17.744Z,2.40
2022-08-09T03:06:34.211Z,2.65
2022-08-09T03:09:05.163Z,2.53
2022-08-09T03:12:09.717Z,2.30
2022-08-09T03:14:28.145Z,2.13
2022-08-09T03:16:58.694Z,2.30
2022-08-09T03:19:59.001Z,2.17
2022-08-09T03:22:25.005Z,2.33
2022-08-09T03:25:21.471Z,2.92
2022-08-09T03:27:52.609Z,2.50
2022-08-09T03:30:33.543Z,2.20
2022-08-09T03:33:17.548Z,2.15
2022-08-09T03:36:12.491Z,2.60
2022-08-09T03:38:43.029Z,2.65
2022-08-09T03:41:16.322Z,2.30
2022-08-09T03:44:02.992Z,2.83
2022-08-09T03:46:33.273Z,2.60
2022-08-09T03:49:08.312Z,2.42
2022-08-09T03:51:43.858Z,2.38
2022-08-09T03:54:38.877Z,2.60
2022-08-09T03:57:17.959Z,3.03
2022-08-09T03:59:54.970Z,2.80
2022-08-09T04:02:27.627Z,2.35
2022-08-09T04:04:59.052Z,2.55
2022-08-09T04:07:47.283Z,2.67
2022-08-09T04:10:18.425Z,2.53
2022-08-09T04:12:53.010Z,2.92
2022-08-09T04:15:40.574Z,3.15
2022-08-09T04:18:17.771Z,2.35
2022-08-09T04:20:47.353Z,2.78
2022-08-09T04:23:17.143Z,2.63
2022-08-09T04:25:52.274Z,2.83
2022-08-09T04:28:33.483Z,2.58
2022-08-09T04:31:09.027Z,2.40
2022-08-09T04:33:52.689Z,2.67
2022-08-09T04:36:26.592Z,3.95
2022-08-09T04:38:55.709Z,3.20
2022-08-09T04:41:24.423Z,3.00
2022-08-09T04:44:07.222Z,3.10
2022-08-09T04:46:58.402Z,3.08
2022-08-09T04:49:40.905Z,2.83
2022-08-09T04:52:18.433Z,2.95
2022-08-09T04:54:51.635Z,2.60
2022-08-09T04:57:24.031Z,2.70
2022-08-09T04:59:54.616Z,3.28
2022-08-09T05:02:27.399Z,2.70
2022-08-09T05:04:55.681Z,3.08
2022-08-09T05:07:24.641Z,3.25
2022-08-09T05:09:54.699Z,3.10
2022-08-09T05:12:22.790Z,2.63
2022-08-09T05:14:49.694Z,3.00
2022-08-09T05:18:38.986Z,2.45
2022-08-09T05:20:05.193Z,2.25
2022-08-09T05:22:36.142Z,2.58
2022-08-09T05:25:20.084Z,2.65
2022-08-09T05:27:48.275Z,2.70
2022-08-09T05:30:15.951Z,2.92
2022-08-09T05:32:51.196Z,2.65
2022-08-09T05:35:21.948Z,2.28
2022-08-09T05:37:51.031Z,2.67
2022-08-09T05:40:18.804Z,3.72
2022-08-09T05:42:46.761Z,2.80
2022-08-09T05:45:14.415Z,2.80
2022-08-09T05:47:51.830Z,3.00
2022-08-09T05:50:31.949Z,2.55
2022-08-09T05:53:21.407Z,2.90
2022-08-09T05:55:50.573Z,2.65
2022-08-09T05:58:18.489Z,2.65
2022-08-09T06:00:45.458Z,3.10
2022-08-09T06:03:20.099Z,2.63
2022-08-09T06:05:57.691Z,2.55
2022-08-09T06:08:33.442Z,2.67
2022-08-09T06:11:01.040Z,2.88
2022-08-09T06:13:28.482Z,2.95
2022-08-09T06:16:04.767Z,2.40
2022-08-09T06:18:33.994Z,2.28
2022-08-09T06:21:01.986Z,2.53
2022-08-09T06:23:57.752Z,2.78
2022-08-09T06:26:22.693Z,2.97
2022-08-09T06:28:59.954Z,2.47
2022-08-09T06:31:40.567Z,2.33
2022-08-09T06:34:22.784Z,2.40
2022-08-09T06:36:59.157Z,3.03
2022-08-09T06:39:48.562Z,2.80
2022-08-09T06:42:20.073Z,2.38
2022-08-09T06:44:54.590Z,2.17
2022-08-09T06:47:23.572Z,2.88
2022-08-09T06:50:14.366Z,2.40
2022-08-09T06:52:46.953Z,2.55
2022-08-09T06:55:16.212Z,2.10
2022-08-09T06:58:02.520Z,2.22
2022-08-09T07:00:50.846Z,2.15
2022-08-09T07:03:19.449Z,2.20
2022-08-09T07:06:03.497Z,2.17
2022-08-09T07:08:31.556Z,2.08
2022-08-09T07:10:58.533Z,2.22
2022-08-09T07:13:29.355Z,2.50
2022-08-09T07:16:44.011Z,2.10
2022-08-09T07:18:47.506Z,2.45
2022-08-09T07:21:17.803Z,3.33
2022-08-09T07:23:57.936Z,3.20
2022-08-09T07:26:26.139Z,3.60
2022-08-09T07:29:08.856Z,2.78
2022-08-09T07:31:45.292Z,2.60
2022-08-09T07:34:19.610Z,2.45
2022-08-09T07:36:49.661Z,2.20
2022-08-09T07:39:20.461Z,1.85
2022-08-09T07:42:05.388Z,1.90
2022-08-09T07:44:51.734Z,2.05
2022-08-09T07:47:23.279Z,2.10
2022-08-09T07:50:04.716Z,1.80
2022-08-09T07:52:36.658Z,1.95
2022-08-09T07:55:09.809Z,2.25
2022-08-09T07:57:47.160Z,2.20
2022-08-09T08:00:20.156Z,2.17
2022-08-09T08:03:04.879Z,1.85
2022-08-09T08:05:54.379Z,1.90
2022-08-09T08:09:01.456Z,1.77
2022-08-09T08:12:09.163Z,1.63
2022-08-09T08:13:56.790Z,1.52
2022-08-09T08:16:29.644Z,1.40
2022-08-09T08:21:26.752Z,1.27
2022-08-09T08:23:56.009Z,0.93
2022-08-09T08:26:26.437Z,1.20
2022-08-09T08:28:53.828Z,1.00
2022-08-09T08:31:20.735Z,1.20
2022-08-09T08:33:53.899Z,1.20
2022-08-09T08:36:29.554Z,1.10
2022-08-09T08:38:59.758Z,1.25
2022-08-09T08:41:50.838Z,1.20
2022-08-09T08:44:18.699Z,1.15
2022-08-09T08:47:02.462Z,1.33
2022-08-09T08:49:47.005Z,1.27
2022-08-09T08:55:07.248Z,1.10
2022-08-09T08:57:35.317Z,1.02
2022-08-09T09:00:16.798Z,1.50
2022-08-09T09:02:52.928Z,1.33
2022-08-09T09:05:33.371Z,1.10
2022-08-09T09:08:30.814Z,1.17
2022-08-09T09:11:04.483Z,1.40
2022-08-09T09:13:55.383Z,1.40
2022-08-09T09:16:34.239Z,1.10
2022-08-09T09:22:26.761Z,1.20
2022-08-09T09:26:00.344Z,1.15
2022-08-09T09:28:03.541Z,1.30
2022-08-09T09:30:40.584Z,1.60
2022-08-09T09:33:13.620Z,1.10
2022-08-09T09:38:43.210Z,1.48
2022-08-09T09:41:27.954Z,1.65
2022-08-09T09:44:12.760Z,1.67
2022-08-09T09:46:46.132Z,1.88
2022-08-09T09:49:32.224Z,1.50
2022-08-09T09:52:37.028Z,1.10
2022-08-09T09:55:16.398Z,1.25
2022-08-09T09:58:02.902Z,1.33
2022-08-09T10:00:33.678Z,1.40
2022-08-09T10:03:11.502Z,1.33
2022-08-09T10:06:00.907Z,1.65
2022-08-09T10:08:31.537Z,1.50
2022-08-09T10:10:59.050Z,2.05
2022-08-09T10:13:45.117Z,1.15
2022-08-09T10:16:57.223Z,1.40
2022-08-09T10:19:11.406Z,1.60
2022-08-09T10:21:49.738Z,1.35
2022-08-09T10:24:25.682Z,1.45
2022-08-09T10:27:10.092Z,1.30
2022-08-09T10:30:27.184Z,1.48
2022-08-09T10:32:42.837Z,1.00
2022-08-09T10:35:18.222Z,1.08
2022-08-09T10:37:48.131Z,1.20
2022-08-09T10:40:33.289Z,1.20
2022-08-09T10:43:00.686Z,1.13
2022-08-09T10:45:31.827Z,1.40
2022-08-09T10:48:26.581Z,1.40
2022-08-09T10:51:53.087Z,1.25
2022-08-09T10:54:25.423Z,1.60
2022-08-09T10:57:13.420Z,1.20
2022-08-09T10:59:58.184Z,1.42
2022-08-09T11:03:11.076Z,1.60
2022-08-09T11:05:30.243Z,1.27
2022-08-09T11:08:43.577Z,1.58
2022-08-09T11:11:14.272Z,1.27
2022-08-09T11:13:49.787Z,1.40
2022-08-09T11:16:39.134Z,1.25
2022-08-09T11:19:10.704Z,1.77
2022-08-09T11:22:10.363Z,1.35
2022-08-09T11:25:26.149Z,2.00
2022-08-09T11:28:34.588Z,2.35
2022-08-09T11:31:38.974Z,1.58
2022-08-09T11:34:22.639Z,2.03
2022-08-09T11:36:51.675Z,1.08
2022-08-09T11:39:18.653Z,1.40
2022-08-09T11:41:47.075Z,1.30
2022-08-09T11:44:15.961Z,1.60
2022-08-09T11:47:00.356Z,1.60
2022-08-09T11:50:55.535Z,1.73
2022-08-09T11:53:15.576Z,1.58
2022-08-09T11:55:53.459Z,1.33
2022-08-09T11:58:33.103Z,1.30
2022-08-09T12:01:08.566Z,1.33
2022-08-09T12:03:57.201Z,1.00
2022-08-09T12:06:32.886Z,1.10
2022-08-09T12:09:19.064Z,1.20
2022-08-09T12:12:05.897Z,1.70
2022-08-09T12:15:04.178Z,1.10
2022-08-09T12:17:34.519Z,2.72
2022-08-09T12:20:22.195Z,1.35
2022-08-09T12:23:00.289Z,1.75
2022-08-09T12:25:37.548Z,1.67
2022-08-09T12:29:14.240Z,1.58
2022-08-09T12:31:11.240Z,1.55
2022-08-09T12:33:58.973Z,1.60
2022-08-09T12:36:31.499Z,1.60
2022-08-09T12:41:36.275Z,1.60
2022-08-09T12:44:08.002Z,1.40
2022-08-09T12:46:40.692Z,1.52
2022-08-09T12:49:08.717Z,1.40
2022-08-09T12:52:00.253Z,1.58
2022-08-09T12:54:23.921Z,1.20
2022-08-09T12:56:54.439Z,1.13
2022-08-09T12:59:23.527Z,1.27
2022-08-09T13:01:59.479Z,1.27
2022-08-09T13:04:36.668Z,1.30
2022-08-09T13:07:19.685Z,1.20
2022-08-09T13:10:05.824Z,1.10
2022-08-09T13:12:39.796Z,1.10
2022-08-09T13:15:09.744Z,1.48
2022-08-09T13:17:58.627Z,2.00
2022-08-09T13:21:03.787Z,1.48
2022-08-09T13:24:16.846Z,1.73
2022-08-09T13:29:16.194Z,1.60
2022-08-09T13:32:13.982Z,1.50
2022-08-09T13:34:45.182Z,2.15
2022-08-09T13:37:15.019Z,1.50
2022-08-09T13:41:52.252Z,2.00
2022-08-09T13:42:50.952Z,1.48
2022-08-09T13:45:19.335Z,1.35
2022-08-09T13:47:49.159Z,1.48
2022-08-09T13:50:31.093Z,1.90
2022-08-09T13:52:58.777Z,1.58
2022-08-09T13:55:28.981Z,1.77
2022-08-09T13:57:58.414Z,1.50
2022-08-09T14:00:29.138Z,1.55
2022-08-09T14:03:04.678Z,1.67
2022-08-09T14:06:00.246Z,1.30
2022-08-09T14:08:31.495Z,1.33
2022-08-09T14:11:00.251Z,1.73
2022-08-09T14:14:24.927Z,1.45
2022-08-09T14:16:19.912Z,1.98
2022-08-09T14:18:57.191Z,1.80
2022-08-09T14:21:26.954Z,1.50
2022-08-09T14:23:57.632Z,1.50
2022-08-09T14:26:33.531Z,1.40
2022-08-09T14:29:07.569Z,1.33
2022-08-09T14:31:51.938Z,1.33
2022-08-09T14:34:27.465Z,1.60
2022-08-09T14:37:06.433Z,1.48
2022-08-09T14:39:45.509Z,1.60
2022-08-09T14:42:30.357Z,1.33
2022-08-09T14:47:59.380Z,1.65
2022-08-09T14:50:34.479Z,1.60
2022-08-09T14:53:06.305Z,1.50
2022-08-09T14:55:42.099Z,1.50
2022-08-09T14:58:10.150Z,2.13
2022-08-09T15:00:38.112Z,1.75
2022-08-09T15:03:10.620Z,1.40
2022-08-09T15:05:38.914Z,1.52
2022-08-09T15:08:10.406Z,2.05
2022-08-09T15:10:38.668Z,1.40
2022-08-09T15:13:08.656Z,1.50
2022-08-09T15:15:38.953Z,1.30
2022-08-09T15:18:14.244Z,1.70
2022-08-09T15:21:58.158Z,1.33
2022-08-09T15:24:01.797Z,1.45
2022-08-09T15:26:19.273Z,1.50
2022-08-09T15:28:55.523Z,1.52
2022-08-09T15:31:22.442Z,1.52
2022-08-09T15:34:32.703Z,1.40
2022-08-09T15:36:54.299Z,1.58
2022-08-09T15:39:21.273Z,1.40
2022-08-09T15:41:50.688Z,1.30
2022-08-09T15:44:19.741Z,1.30
2022-08-09T15:46:49.942Z,1.48
2022-08-09T15:49:22.053Z,1.55
2022-08-09T15:52:03.214Z,1.52
2022-08-09T15:54:46.427Z,1.40
2022-08-09T15:57:35.292Z,1.30
2022-08-09T16:00:24.303Z,1.80
2022-08-09T16:02:56.273Z,1.45
2022-08-09T16:05:47.477Z,1.45
2022-08-09T16:08:30.996Z,1.40
2022-08-09T16:11:02.957Z,1.50
2022-08-09T16:14:06.128Z,1.50
2022-08-09T16:16:20.344Z,1.33
2022-08-09T16:18:55.251Z,1.40
2022-08-09T16:21:25.648Z,1.58
2022-08-09T16:24:01.629Z,1.67
2022-08-09T16:26:35.254Z,1.77
2022-08-09T16:29:14.775Z,1.50
2022-08-09T16:32:18.960Z,1.48
2022-08-09T16:34:54.607Z,1.45
2022-08-09T16:37:56.164Z,1.40
2022-08-09T16:40:11.686Z,1.73
2022-08-09T16:42:45.134Z,1.38
2022-08-09T16:45:17.547Z,1.45
2022-08-09T16:48:42.024Z,1.55
2022-08-09T16:50:34.563Z,1.50
2022-08-09T16:53:02.884Z,1.50
2022-08-09T16:55:57.658Z,1.40
2022-08-09T16:58:21.033Z,1.10
2022-08-09T17:00:49.534Z,1.23
2022-08-09T17:03:21.822Z,1.00
2022-08-09T17:06:07.398Z,1.98
2022-08-09T17:08:43.135Z,1.38
2022-08-09T17:11:24.604Z,1.23
2022-08-09T17:14:01.953Z,1.60
2022-08-09T17:16:29.471Z,1.30
2022-08-09T17:18:56.574Z,1.40
2022-08-09T17:21:25.517Z,1.35
2022-08-09T17:24:20.720Z,1.10
2022-08-09T17:26:43.224Z,1.30
2022-08-09T17:29:20.388Z,1.50
2022-08-09T17:31:49.213Z,1.20
2022-08-09T17:34:38.075Z,1.60
2022-08-09T17:37:04.165Z,1.65
2022-08-09T17:39:52.666Z,1.42
2022-08-09T17:42:40.982Z,1.10
2022-08-09T17:45:06.738Z,2.03
2022-08-09T17:47:49.963Z,1.50
2022-08-09T17:50:36.126Z,1.40
2022-08-09T17:53:04.783Z,1.20
2022-08-09T17:55:49.593Z,1.58
2022-08-09T17:58:18.820Z,1.25
2022-08-09T18:00:47.908Z,1.60
2022-08-09T18:03:17.685Z,1.60
2022-08-09T18:05:45.443Z,1.40
2022-08-09T18:08:22.219Z,1.25
2022-08-09T18:11:00.813Z,1.27
2022-08-09T18:13:39.159Z,1.58
2022-08-09T18:16:30.201Z,1.70
2022-08-09T18:19:03.948Z,1.20
2022-08-09T18:21:50.237Z,1.50
2022-08-09T18:24:17.322Z,1.60
2022-08-09T18:26:45.959Z,1.90
2022-08-09T18:30:41.260Z,1.40
2022-08-09T18:32:04.980Z,1.40
2022-08-09T18:34:35.033Z,1.75
2022-08-09T18:37:10.169Z,1.83
2022-08-09T18:39:54.007Z,1.83
2022-08-09T18:42:21.689Z,1.52
2022-08-09T18:44:57.095Z,1.77
2022-08-09T18:47:37.254Z,1.40
2022-08-09T18:50:09.149Z,1.60
2022-08-09T18:52:37.632Z,1.38
2022-08-09T18:55:13.613Z,1.65
2022-08-09T18:57:43.456Z,1.60
2022-08-09T19:00:16.705Z,1.90
2022-08-09T19:02:51.115Z,1.35
2022-08-09T19:05:28.230Z,1.60
2022-08-09T19:08:10.730Z,1.80
2022-08-09T19:10:41.327Z,1.65
2022-08-09T19:13:20.708Z,1.60
2022-08-09T19:15:52.403Z,1.85
2022-08-09T19:18:33.710Z,2.10
2022-08-09T19:21:09.352Z,1.83
2022-08-09T19:24:32.452Z,1.98
2022-08-09T19:26:31.677Z,1.70
2022-08-09T19:29:09.520Z,1.73
2022-08-09T19:31:49.407Z,1.83
2022-08-09T19:34:22.688Z,1.60
2022-08-09T19:36:53.760Z,2.20
2022-08-09T19:39:44.002Z,2.00
2022-08-09T19:42:14.453Z,2.10
2022-08-09T19:44:42.915Z,2.03
2022-08-09T19:47:11.238Z,2.00
2022-08-09T19:50:05.370Z,2.40
2022-08-09T19:52:26.973Z,2.05
2022-08-09T19:54:53.847Z,1.90
2022-08-09T19:57:25.626Z,1.80
2022-08-09T20:00:01.873Z,1.90
2022-08-09T20:04:17.841Z,2.22
2022-08-09T20:05:25.268Z,1.80
2022-08-09T20:07:59.069Z,1.63
2022-08-09T20:10:34.561Z,1.83
2022-08-09T20:13:06.459Z,1.90
2022-08-09T20:16:33.585Z,2.35
2022-08-09T20:18:22.775Z,2.00
2022-08-09T20:20:56.011Z,2.15
2022-08-09T20:23:25.519Z,1.90
2022-08-09T20:26:07.194Z,1.90
2022-08-09T20:28:47.992Z,1.88
2022-08-09T20:31:16.167Z,1.95
2022-08-09T20:33:44.733Z,2.10
2022-08-09T20:36:12.811Z,2.15
2022-08-09T20:41:32.034Z,2.35
2022-08-09T20:44:03.531Z,1.90
2022-08-09T20:46:33.991Z,2.22
2022-08-09T20:49:10.298Z,2.03
2022-08-09T20:51:41.366Z,2.00
2022-08-09T20:54:17.188Z,1.95
2022-08-09T20:56:49.476Z,1.90
2022-08-09T21:00:19.091Z,2.10
2022-08-09T21:02:08.660Z,2.00
2022-08-09T21:05:56.336Z,1.80
2022-08-09T21:07:24.891Z,1.80
2022-08-09T21:09:58.562Z,1.95
2022-08-09T21:15:34.888Z,1.98
2022-08-09T21:18:21.741Z,2.40
2022-08-09T21:20:53.860Z,1.92
2022-08-09T21:23:22.214Z,2.00
2022-08-09T21:26:03.463Z,1.98
2022-08-09T21:28:35.856Z,2.65
2022-08-09T21:31:13.761Z,1.90
2022-08-09T21:33:53.185Z,2.00
2022-08-09T21:36:28.525Z,2.00
2022-08-09T21:38:59.180Z,2.08
2022-08-09T21:42:05.034Z,2.03
2022-08-09T21:44:33.000Z,2.40
2022-08-09T21:47:04.202Z,1.85
2022-08-09T21:49:40.378Z,2.25
2022-08-09T21:52:17.180Z,2.10
2022-08-09T21:54:57.182Z,2.42
2022-08-09T21:57:39.616Z,2.03
2022-08-09T22:00:32.580Z,2.20
2022-08-09T22:03:04.830Z,2.03
2022-08-09T22:05:37.593Z,1.77
2022-08-09T22:08:15.998Z,1.88
2022-08-09T22:11:50.136Z,1.90
2022-08-09T22:13:36.798Z,1.77
2022-08-09T22:16:07.670Z,1.92
2022-08-09T22:18:35.905Z,2.03
2022-08-09T22:21:09.949Z,1.77
2022-08-09T22:24:01.272Z,2.00
2022-08-09T22:26:34.960Z,2.10
2022-08-09T22:29:09.361Z,2.08
2022-08-09T22:31:50.513Z,2.00
2022-08-09T22:34:26.253Z,2.00
2022-08-09T22:36:58.807Z,1.90
2022-08-09T22:39:55.565Z,2.00
2022-08-09T22:42:22.192Z,2.10
2022-08-09T22:45:02.216Z,2.10
2022-08-09T22:48:12.379Z,2.13
2022-08-09T22:50:29.762Z,2.05
2022-08-09T22:52:58.231Z,2.20
2022-08-09T22:55:39.471Z,1.70
2022-08-09T22:58:30.895Z,2.00
2022-08-09T23:04:02.273Z,2.38
2022-08-09T23:06:14.476Z,1.95
2022-08-09T23:08:56.665Z,2.33
2022-08-09T23:11:23.617Z,2.40
2022-08-09T23:13:53.895Z,2.13
2022-08-09T23:16:23.234Z,2.03
2022-08-09T23:18:50.154Z,2.22
2022-08-09T23:21:25.138Z,2.60
2022-08-09T23:24:05.109Z,2.20
2022-08-09T23:26:35.574Z,2.15
2022-08-09T23:29:04.109Z,2.05
2022-08-09T23:31:31.029Z,2.38
2022-08-09T23:33:57.956Z,2.33
2022-08-09T23:36:25.162Z,2.10
2022-08-09T23:38:52.009Z,2.42
2022-08-09T23:41:28.877Z,2.45
2022-08-09T23:44:01.452Z,2.30
2022-08-09T23:46:30.621Z,2.22
2022-08-09T23:48:59.168Z,2.33
2022-08-09T23:51:27.143Z,2.20
2022-08-09T23:54:02.258Z,2.28
2022-08-09T23:56:52.063Z,2.10
2022-08-09T23:59:20.824Z,2.10
